Time;durP1;ratioP1;P1;durP2;ratioP2;P2;SDS_P1;SDS_P2;PMS_P1;PMS_P2;Temp;Humidity;BMP_temperature;BMP_pressure;BME280_temperature;BME280_humidity;BME280_pressure;Samples;Min_cycle;Max_cycle;Signal;HPM_P1;HPM_P2
2023/03/12 00:00:54;;;;;;;3.67;3.27;;;6.50;38.60;;;;;;6177275;28;20497;-64
2023/03/12 00:03:57;;;;;;;4.97;4.57;;;6.20;39.60;;;;;;6177516;28;20486;-65
2023/03/12 00:07:01;;;;;;;9.30;8.40;;;6.00;40.50;;;;;;6177195;28;20985;-65
2023/03/12 00:10:04;;;;;;;8.63;7.83;;;6.00;40.70;;;;;;6177415;28;21001;-65
2023/03/12 00:13:09;;;;;;;7.90;7.30;;;6.00;40.80;;;;;;6176999;28;20965;-65
2023/03/12 00:16:14;;;;;;;6.40;5.90;;;6.00;40.70;;;;;;6177428;28;20474;-65
2023/03/12 00:19:17;;;;;;;10.63;9.63;;;5.70;41.30;;;;;;6176966;28;20478;-64
2023/03/12 00:22:21;;;;;;;11.67;9.07;;;5.60;41.70;;;;;;6177955;28;20478;-65
2023/03/12 00:25:25;;;;;;;6.07;5.47;;;5.60;42.00;;;;;;6177555;28;20474;-65
2023/03/12 00:28:29;;;;;;;3.80;3.50;;;5.60;41.90;;;;;;6177716;28;20473;-64
2023/03/12 00:31:33;;;;;;;4.73;4.37;;;5.60;42.20;;;;;;6176591;28;20961;-66
2023/03/12 00:34:36;;;;;;;3.00;2.70;;;5.50;42.40;;;;;;6177109;28;20474;-66
2023/03/12 00:37:40;;;;;;;4.17;3.87;;;5.50;42.40;;;;;;6181943;28;20474;-66
2023/03/12 00:40:43;;;;;;;6.97;3.90;;;5.50;42.70;;;;;;6177410;28;20469;-65
2023/03/12 00:43:49;;;;;;;5.47;4.97;;;5.40;43.00;;;;;;6176915;28;20966;-66
2023/03/12 00:46:52;;;;;;;5.47;4.93;;;5.30;43.10;;;;;;6177532;28;20477;-66
2023/03/12 00:49:56;;;;;;;3.93;3.10;;;5.40;43.20;;;;;;6176886;28;20795;-66
2023/03/12 00:52:59;;;;;;;3.40;3.10;;;5.40;43.20;;;;;;6176333;28;21001;-66
2023/03/12 00:56:03;;;;;;;3.70;2.80;;;5.20;43.60;;;;;;6176523;28;20493;-66
2023/03/12 00:59:07;;;;;;;3.90;2.63;;;5.10;43.90;;;;;;6178674;28;20643;-66
2023/03/12 01:02:10;;;;;;;5.40;2.50;;;5.10;44.00;;;;;;6177446;28;20553;-66
2023/03/12 01:05:14;;;;;;;3.00;2.80;;;5.10;44.40;;;;;;6177825;28;20485;-65
2023/03/12 01:08:17;;;;;;;2.70;2.50;;;5.00;44.60;;;;;;6185120;28;20508;-65
2023/03/12 01:11:21;;;;;;;2.90;2.70;;;4.90;45.00;;;;;;6186772;28;20485;-63
2023/03/12 01:14:26;;;;;;;2.77;2.57;;;4.80;45.50;;;;;;6182614;28;20970;-65
2023/03/12 01:17:29;;;;;;;3.33;2.77;;;4.80;45.50;;;;;;6177177;28;20800;-64
2023/03/12 01:20:32;;;;;;;4.70;3.03;;;4.60;45.70;;;;;;6176600;28;20781;-64
2023/03/12 01:23:35;;;;;;;6.50;4.03;;;4.60;46.00;;;;;;6175922;28;20469;-64
2023/03/12 01:26:39;;;;;;;13.97;7.87;;;4.70;46.00;;;;;;6176014;28;20473;-65
2023/03/12 01:29:43;;;;;;;8.70;5.10;;;4.80;46.00;;;;;;6175894;28;20831;-65
2023/03/12 01:32:46;;;;;;;3.40;3.07;;;4.80;46.00;;;;;;6175688;28;20457;-65
2023/03/12 01:35:50;;;;;;;3.63;3.33;;;4.80;46.10;;;;;;6175843;28;20446;-64
2023/03/12 01:38:55;;;;;;;2.63;2.43;;;4.90;46.10;;;;;;6175765;28;20563;-65
2023/03/12 01:41:58;;;;;;;3.37;3.07;;;4.80;46.30;;;;;;6176309;28;20430;-65
2023/03/12 01:45:05;;;;;;;3.07;2.87;;;4.90;46.60;;;;;;6176020;28;20442;-65
2023/03/12 01:48:08;;;;;;;4.90;2.67;;;5.00;46.80;;;;;;6175765;28;20901;-65
2023/03/12 01:51:14;;;;;;;2.90;2.50;;;5.10;46.80;;;;;;6175529;28;20462;-65
2023/03/12 01:54:22;;;;;;;3.20;2.60;;;5.10;46.30;;;;;;6176250;28;20481;-65
2023/03/12 01:57:30;;;;;;;3.00;2.80;;;5.10;46.20;;;;;;6175709;28;20785;-65
2023/03/12 02:00:35;;;;;;;2.80;2.60;;;5.00;46.20;;;;;;6175668;28;20484;-65
2023/03/12 02:03:38;;;;;;;2.93;2.50;;;5.00;46.40;;;;;;6177103;28;20474;-65
2023/03/12 02:06:48;;;;;;;3.00;2.70;;;4.90;46.40;;;;;;6179989;28;20488;-65
2023/03/12 02:09:51;;;;;;;4.33;3.90;;;4.90;46.80;;;;;;6179735;28;20580;-64
2023/03/12 02:12:54;;;;;;;3.00;2.70;;;4.70;47.00;;;;;;6179988;28;20492;-65
2023/03/12 02:15:59;;;;;;;3.73;3.40;;;4.80;47.30;;;;;;6179522;28;20477;-65
2023/03/12 02:19:08;;;;;;;3.20;2.90;;;4.70;47.50;;;;;;6180953;28;20906;-65
2023/03/12 02:22:12;;;;;;;3.10;2.90;;;4.80;48.20;;;;;;6177248;28;20926;-66
2023/03/12 02:25:26;;;;;;;3.50;3.20;;;4.80;47.80;;;;;;6180504;28;20480;-65
2023/03/12 02:28:30;;;;;;;3.10;2.87;;;4.80;48.10;;;;;;6179922;28;20527;-64
2023/03/12 02:31:37;;;;;;;3.53;3.27;;;4.80;48.10;;;;;;6179749;28;20833;-65
2023/03/12 02:34:41;;;;;;;3.40;3.07;;;4.90;48.50;;;;;;6179272;28;20768;-65
2023/03/12 02:37:48;;;;;;;3.27;2.97;;;4.90;48.50;;;;;;6179249;28;20473;-64
2023/03/12 02:40:55;;;;;;;3.57;3.20;;;4.90;48.60;;;;;;6178939;28;20477;-64
2023/03/12 02:44:03;;;;;;;3.33;3.03;;;4.80;48.50;;;;;;6179420;28;20474;-65
2023/03/12 02:47:06;;;;;;;3.40;2.83;;;4.70;48.70;;;;;;6179018;28;20569;-65
2023/03/12 02:50:11;;;;;;;3.20;2.90;;;4.80;49.00;;;;;;6178912;28;20795;-65
2023/03/12 02:53:14;;;;;;;3.33;3.03;;;4.80;49.20;;;;;;6195755;28;20481;-64
2023/03/12 02:56:19;;;;;;;3.50;3.20;;;4.80;49.50;;;;;;6198991;28;20778;-64
2023/03/12 02:59:25;;;;;;;4.03;3.33;;;4.80;50.40;;;;;;6189351;28;20514;-64
2023/03/12 03:02:28;;;;;;;3.10;2.87;;;4.80;50.70;;;;;;6184031;28;20473;-64
2023/03/12 03:05:31;;;;;;;4.60;3.07;;;4.70;50.80;;;;;;6181721;28;20479;-64
2023/03/12 03:08:35;;;;;;;2.97;2.73;;;4.70;51.30;;;;;;6202283;28;20976;-64
2023/03/12 03:11:40;;;;;;;4.30;3.90;;;4.60;51.30;;;;;;6202297;28;20483;-66
2023/03/12 03:14:43;;;;;;;7.30;3.73;;;4.70;51.90;;;;;;6189775;28;20766;-66
2023/03/12 03:17:46;;;;;;;3.40;3.10;;;4.70;51.20;;;;;;6186002;28;20480;-66
2023/03/12 03:20:55;;;;;;;3.90;3.10;;;4.60;51.20;;;;;;6189199;28;20484;-66
2023/03/12 03:23:59;;;;;;;3.60;3.10;;;4.50;51.20;;;;;;6190435;28;20484;-66
2023/03/12 03:27:04;;;;;;;3.97;3.53;;;4.50;51.30;;;;;;6182753;28;20809;-66
2023/03/12 03:30:08;;;;;;;3.17;2.93;;;4.50;51.30;;;;;;6180760;28;20473;-65
2023/03/12 03:33:11;;;;;;;4.13;3.83;;;4.40;51.30;;;;;;6180988;28;20957;-65
2023/03/12 03:36:15;;;;;;;2.60;2.40;;;4.40;51.20;;;;;;6180514;28;20485;-65
2023/03/12 03:39:19;;;;;;;3.97;2.73;;;4.30;51.60;;;;;;6178580;28;20473;-66
2023/03/12 03:42:23;;;;;;;3.47;3.27;;;4.30;51.80;;;;;;6178245;28;20818;-66
2023/03/12 03:45:26;;;;;;;4.20;2.60;;;4.30;51.80;;;;;;6177980;28;20588;-66
2023/03/12 03:48:30;;;;;;;2.90;2.70;;;4.30;52.00;;;;;;6177356;28;20799;-66
2023/03/12 03:51:33;;;;;;;2.73;2.50;;;4.20;52.30;;;;;;6177740;28;20953;-66
2023/03/12 03:54:36;;;;;;;3.40;2.90;;;4.20;52.50;;;;;;6177264;28;20520;-66
2023/03/12 03:57:41;;;;;;;3.33;3.00;;;4.10;52.60;;;;;;6177842;28;20950;-64
2023/03/12 04:00:45;;;;;;;3.40;3.10;;;4.10;52.90;;;;;;6177302;28;20822;-65
2023/03/12 04:03:48;;;;;;;2.73;2.40;;;4.00;53.00;;;;;;6177826;28;20536;-66
2023/03/12 04:06:51;;;;;;;3.73;3.33;;;4.00;53.20;;;;;;6176741;28;20478;-65
2023/03/12 04:09:56;;;;;;;3.60;3.30;;;3.90;53.30;;;;;;6177506;28;20473;-65
2023/03/12 04:13:01;;;;;;;6.07;3.30;;;3.90;53.60;;;;;;6176452;28;20470;-65
2023/03/12 04:16:04;;;;;;;4.60;3.70;;;3.90;53.80;;;;;;6177387;28;20474;-65
2023/03/12 04:19:07;;;;;;;3.47;3.17;;;3.80;54.20;;;;;;6177201;28;20973;-66
2023/03/12 04:22:11;;;;;;;3.27;3.00;;;3.80;54.30;;;;;;6177145;28;20589;-65
2023/03/12 04:25:14;;;;;;;3.30;3.10;;;3.80;54.40;;;;;;6168279;28;20562;-66
2023/03/12 04:28:18;;;;;;;2.73;2.57;;;3.70;54.50;;;;;;6176943;28;20477;-67
2023/03/12 04:31:22;;;;;;;4.77;3.00;;;3.70;54.90;;;;;;6176935;28;20488;-68
2023/03/12 04:34:25;;;;;;;3.40;3.10;;;3.60;54.90;;;;;;6176876;28;20484;-68
2023/03/12 04:37:28;;;;;;;3.03;2.43;;;3.60;55.00;;;;;;6176598;28;20478;-64
2023/03/12 04:40:31;;;;;;;3.70;2.83;;;3.60;55.20;;;;;;6175652;28;20488;-66
2023/03/12 04:43:36;;;;;;;3.40;3.10;;;3.50;55.30;;;;;;6176791;28;20478;-66
2023/03/12 04:46:39;;;;;;;3.00;2.80;;;3.60;55.60;;;;;;6177337;28;20997;-67
2023/03/12 04:49:43;;;;;;;3.63;2.93;;;3.50;55.80;;;;;;6176709;28;20482;-66
2023/03/12 04:52:46;;;;;;;3.43;2.87;;;3.50;56.20;;;;;;6176354;28;20676;-66
2023/03/12 04:55:49;;;;;;;3.67;3.37;;;3.50;56.30;;;;;;6176179;28;20818;-66
2023/03/12 04:58:53;;;;;;;4.30;3.30;;;3.50;56.40;;;;;;6175863;28;20501;-65
2023/03/12 05:01:57;;;;;;;5.23;3.70;;;3.40;56.60;;;;;;6176397;28;20516;-66
2023/03/12 05:05:00;;;;;;;4.13;3.20;;;3.40;56.80;;;;;;6176113;28;20478;-66
2023/03/12 05:08:04;;;;;;;3.80;3.50;;;3.40;57.00;;;;;;6176240;28;20791;-65
2023/03/12 05:11:07;;;;;;;4.40;3.40;;;3.40;57.20;;;;;;6176448;28;20472;-66
2023/03/12 05:14:12;;;;;;;4.30;3.40;;;3.40;57.40;;;;;;6176273;28;20484;-66
2023/03/12 05:17:15;;;;;;;4.73;4.27;;;3.30;57.40;;;;;;6176283;28;20478;-66
2023/03/12 05:20:19;;;;;;;5.13;4.20;;;3.30;57.50;;;;;;6176151;28;20478;-66
2023/03/12 05:23:22;;;;;;;5.83;4.53;;;3.30;57.60;;;;;;6176017;28;20497;-66
2023/03/12 05:26:27;;;;;;;4.10;3.57;;;3.30;57.80;;;;;;6176564;28;20764;-65
2023/03/12 05:29:34;;;;;;;4.27;3.87;;;3.30;58.00;;;;;;6167121;28;20984;-65
2023/03/12 05:32:37;;;;;;;4.40;3.67;;;3.30;58.20;;;;;;6175751;28;20489;-66
2023/03/12 05:35:40;;;;;;;4.17;3.50;;;3.20;58.40;;;;;;6175951;28;20528;-66
2023/03/12 05:38:44;;;;;;;3.60;3.30;;;3.20;58.60;;;;;;6179105;28;20491;-66
2023/03/12 05:41:47;;;;;;;3.40;3.00;;;3.30;58.70;;;;;;6180724;28;20790;-66
2023/03/12 05:44:52;;;;;;;6.10;3.90;;;3.30;59.00;;;;;;6181063;28;20461;-65
2023/03/12 05:47:55;;;;;;;3.73;3.43;;;3.30;59.10;;;;;;6180652;28;20972;-66
2023/03/12 05:50:58;;;;;;;3.30;2.97;;;3.30;59.10;;;;;;6180507;28;20472;-66
2023/03/12 05:54:02;;;;;;;3.57;3.23;;;3.40;59.10;;;;;;6180806;28;20457;-66
2023/03/12 05:57:05;;;;;;;5.30;3.40;;;3.40;59.20;;;;;;6180967;28;20500;-66
2023/03/12 06:00:14;;;;;;;3.87;3.57;;;3.40;59.10;;;;;;6180370;28;21000;-66
2023/03/12 06:03:17;;;;;;;4.53;3.57;;;3.40;59.10;;;;;;6180372;28;20591;-66
2023/03/12 06:06:21;;;;;;;5.60;4.33;;;3.50;59.00;;;;;;6179654;28;20465;-67
2023/03/12 06:09:24;;;;;;;8.20;5.40;;;3.50;59.30;;;;;;6180265;28;20473;-66
2023/03/12 06:12:27;;;;;;;12.90;7.43;;;3.50;59.40;;;;;;6179903;28;20795;-66
2023/03/12 06:15:32;;;;;;;15.33;7.90;;;3.50;59.60;;;;;;6179763;28;20934;-66
2023/03/12 06:18:36;;;;;;;12.70;7.90;;;3.60;59.60;;;;;;6180169;28;20481;-66
2023/03/12 06:21:39;;;;;;;10.07;6.50;;;3.70;59.40;;;;;;6179339;28;20794;-67
2023/03/12 06:24:46;;;;;;;8.77;5.70;;;3.70;58.90;;;;;;6179882;28;20474;-66
2023/03/12 06:27:49;;;;;;;7.13;5.43;;;3.80;59.00;;;;;;6179604;28;20492;-66
2023/03/12 06:30:55;;;;;;;6.53;5.00;;;3.90;59.00;;;;;;6170649;28;20473;-66
2023/03/12 06:33:58;;;;;;;4.40;3.90;;;3.90;58.60;;;;;;6179723;28;20493;-65
2023/03/12 06:37:01;;;;;;;3.23;2.93;;;3.90;58.30;;;;;;6179953;28;20481;-66
2023/03/12 06:40:09;;;;;;;3.00;2.70;;;3.90;58.10;;;;;;6179459;28;20489;-66
2023/03/12 06:43:12;;;;;;;2.80;2.60;;;3.80;57.70;;;;;;6179530;28;20474;-65
2023/03/12 06:46:20;;;;;;;4.70;3.87;;;3.90;58.10;;;;;;6179012;28;20488;-66
2023/03/12 06:49:24;;;;;;;4.90;4.53;;;4.00;57.60;;;;;;6178123;28;20497;-65
2023/03/12 06:52:27;;;;;;;4.27;3.70;;;4.00;57.40;;;;;;6179143;28;20480;-65
2023/03/12 06:55:30;;;;;;;4.23;3.60;;;3.80;57.40;;;;;;6178910;28;20473;-66
2023/03/12 06:58:34;;;;;;;4.00;3.60;;;3.80;57.70;;;;;;6178983;28;20557;-65
2023/03/12 07:01:38;;;;;;;7.40;4.60;;;3.90;57.60;;;;;;6178825;28;20480;-66
2023/03/12 07:04:41;;;;;;;4.27;3.97;;;4.10;57.40;;;;;;6178699;28;20466;-66
2023/03/12 07:07:44;;;;;;;5.03;3.13;;;4.10;57.30;;;;;;6178554;28;20481;-66
2023/03/12 07:10:48;;;;;;;3.20;2.70;;;4.10;57.20;;;;;;6178557;28;20473;-64
2023/03/12 07:13:51;;;;;;;2.87;2.67;;;4.00;57.70;;;;;;6178544;28;20478;-65
2023/03/12 07:16:56;;;;;;;2.67;2.47;;;4.00;57.60;;;;;;6178240;28;20473;-65
2023/03/12 07:19:59;;;;;;;8.90;2.83;;;4.10;57.40;;;;;;6178957;28;20485;-64
2023/03/12 07:23:03;;;;;;;3.30;3.00;;;4.10;57.70;;;;;;6178687;28;20481;-65
2023/03/12 07:26:06;;;;;;;3.50;2.60;;;4.20;57.30;;;;;;6178401;28;20466;-65
2023/03/12 07:29:09;;;;;;;3.57;3.27;;;4.40;57.30;;;;;;6200940;28;20495;-65
2023/03/12 07:32:14;;;;;;;3.70;3.40;;;4.60;57.10;;;;;;6203542;28;20464;-65
2023/03/12 07:35:17;;;;;;;2.90;2.70;;;5.50;56.40;;;;;;6202338;28;20479;-65
2023/03/12 07:38:20;;;;;;;2.93;2.73;;;8.10;52.90;;;;;;6202445;28;20562;-66
2023/03/12 07:41:24;;;;;;;5.00;4.60;;;10.50;45.50;;;;;;6202444;28;20969;-66
2023/03/12 07:44:27;;;;;;;3.30;3.00;;;11.60;40.70;;;;;;6207396;28;20469;-65
2023/03/12 07:47:32;;;;;;;3.47;3.17;;;11.10;39.90;;;;;;6207666;28;20983;-65
2023/03/12 07:50:36;;;;;;;2.63;2.40;;;9.70;42.00;;;;;;6202274;28;20477;-65
2023/03/12 07:53:39;;;;;;;3.43;2.90;;;8.80;44.40;;;;;;6202368;28;20473;-66
2023/03/12 07:56:43;;;;;;;3.50;2.60;;;9.10;44.40;;;;;;6201979;28;20476;-65
2023/03/12 07:59:46;;;;;;;2.57;2.37;;;11.40;42.50;;;;;;6201596;28;20469;-66
2023/03/12 08:02:51;;;;;;;3.23;2.60;;;13.60;37.30;;;;;;6201334;28;20476;-66
2023/03/12 08:06:00;;;;;;;2.40;2.13;;;16.90;33.60;;;;;;6202286;28;20441;-66
2023/03/12 08:09:03;;;;;;;5.93;2.80;;;19.50;28.50;;;;;;6202219;28;20527;-65
2023/03/12 08:12:07;;;;;;;3.57;2.73;;;21.50;25.50;;;;;;6201814;28;20252;-66
2023/03/12 08:15:12;;;;;;;3.50;2.60;;;22.00;23.90;;;;;;6196837;28;20562;-66
2023/03/12 08:18:17;;;;;;;3.00;2.60;;;23.70;22.90;;;;;;6187993;28;20610;-67
2023/03/12 08:21:20;;;;;;;3.20;2.77;;;24.90;21.10;;;;;;6196355;28;20236;-66
2023/03/12 08:24:23;;;;;;;3.83;3.53;;;24.90;20.00;;;;;;6191582;28;20233;-66
2023/03/12 08:27:26;;;;;;;2.90;2.70;;;26.00;19.50;;;;;;6202406;28;20570;-66
2023/03/12 08:30:29;;;;;;;5.67;5.17;;;26.90;18.60;;;;;;6201424;28;20255;-66
2023/03/12 08:33:34;;;;;;;3.83;3.47;;;27.60;17.80;;;;;;6189569;28;20725;-66
2023/03/12 08:36:37;;;;;;;5.70;4.53;;;28.10;16.80;;;;;;6167097;28;20229;-66
2023/03/12 08:39:40;;;;;;;3.13;2.93;;;28.60;16.60;;;;;;6188312;28;20235;-67
2023/03/12 08:42:45;;;;;;;4.70;4.30;;;28.50;16.50;;;;;;6176822;28;20602;-66
2023/03/12 08:45:54;;;;;;;3.33;3.03;;;29.30;16.00;;;;;;6176867;28;20229;-66
2023/03/12 08:48:58;;;;;;;3.27;3.03;;;27.90;15.50;;;;;;6176589;28;20240;-65
2023/03/12 08:52:01;;;;;;;4.90;4.50;;;27.70;16.90;;;;;;6176339;28;20709;-67
2023/03/12 08:55:06;;;;;;;3.13;2.93;;;29.40;15.70;;;;;;6176863;28;20244;-66
2023/03/12 08:58:09;;;;;;;4.30;3.90;;;29.90;14.60;;;;;;6176739;28;20777;-66
2023/03/12 09:01:13;;;;;;;3.00;2.80;;;28.60;15.60;;;;;;6176813;28;20248;-66
2023/03/12 09:04:18;;;;;;;2.80;2.60;;;29.70;14.90;;;;;;6187830;28;20633;-66
2023/03/12 09:07:22;;;;;;;5.03;4.57;;;30.40;14.50;;;;;;6200768;28;20228;-65
2023/03/12 09:10:26;;;;;;;3.90;3.60;;;30.20;13.90;;;;;;6200532;28;20232;-65
2023/03/12 09:13:32;;;;;;;3.27;3.07;;;29.20;14.50;;;;;;6204324;28;20236;-65
2023/03/12 09:16:56;;;;;;;3.13;2.83;;;28.80;14.50;;;;;;6205575;28;20371;-66
2023/03/12 09:20:03;;;;;;;3.90;3.50;;;28.00;15.20;;;;;;6205635;28;20251;-66
2023/03/12 09:23:07;;;;;;;3.20;2.90;;;27.70;15.30;;;;;;6205790;28;20244;-67
2023/03/12 09:26:10;;;;;;;3.97;3.57;;;27.50;15.50;;;;;;6205533;28;20232;-67
2023/03/12 09:29:13;;;;;;;3.30;3.00;;;27.90;15.30;;;;;;6205350;28;20252;-67
2023/03/12 09:32:17;;;;;;;3.40;3.10;;;28.70;14.90;;;;;;6205508;28;20228;-67
2023/03/12 09:35:21;;;;;;;2.85;2.65;;;30.30;14.60;;;;;;6205169;28;20669;-67
2023/03/12 09:38:25;;;;;;;3.33;3.00;;;32.60;13.20;;;;;;6208774;28;20237;-66
2023/03/12 09:41:31;;;;;;;3.30;3.00;;;34.60;12.00;;;;;;6208800;28;20237;-67
2023/03/12 09:44:39;;;;;;;6.20;5.80;;;35.70;11.10;;;;;;6205915;28;20555;-67
2023/03/12 09:47:47;;;;;;;3.60;3.28;;;35.80;10.60;;;;;;6205504;28;20251;-67
2023/03/12 09:50:53;;;;;;;3.50;3.20;;;32.80;11.00;;;;;;6205456;28;20229;-67
2023/03/12 09:53:59;;;;;;;5.77;5.37;;;30.00;12.50;;;;;;6204426;28;20200;-67
2023/03/12 09:57:11;;;;;;;4.00;3.60;;;28.00;13.70;;;;;;6204898;28;20641;-67
2023/03/12 10:00:17;;;;;;;4.07;3.67;;;25.00;15.60;;;;;;6204292;28;20256;-67
2023/03/12 10:04:04;;;;;;;4.73;4.33;;;23.10;17.20;;;;;;6204884;28;20234;-67
2023/03/12 10:10:36;;;;;;;3.60;3.30;;;20.80;19.50;;;;;;6178730;28;20234;-66
2023/03/12 10:14:01;;;;;;;3.20;3.00;;;20.10;20.20;;;;;;6180151;28;20592;-67
2023/03/12 10:17:26;;;;;;;4.30;3.90;;;19.50;20.40;;;;;;6180091;28;20545;-67
2023/03/12 10:20:51;;;;;;;3.30;3.00;;;19.30;20.50;;;;;;6156050;28;20254;-67
2023/03/12 10:24:13;;;;;;;3.17;2.87;;;20.00;20.60;;;;;;6155044;28;20231;-67
2023/03/12 10:27:18;;;;;;;3.57;3.00;;;21.70;20.20;;;;;;6156352;28;20235;-66
2023/03/12 10:30:25;;;;;;;3.80;3.50;;;24.70;18.70;;;;;;6155516;28;20238;-66
2023/03/12 10:33:42;;;;;;;4.07;3.67;;;26.20;16.60;;;;;;6156234;28;20235;-66
2023/03/12 10:36:46;;;;;;;3.77;3.47;;;26.10;16.40;;;;;;6156066;28;20234;-67
2023/03/12 10:39:52;;;;;;;4.20;3.70;;;26.90;16.10;;;;;;6155826;28;20540;-66
2023/03/12 10:42:55;;;;;;;3.73;3.43;;;28.70;15.10;;;;;;6155840;28;20234;-66
2023/03/12 10:46:10;;;;;;;4.20;3.80;;;28.80;14.30;;;;;;6155764;28;20242;-66
2023/03/12 10:49:29;;;;;;;4.20;3.90;;;26.40;15.60;;;;;;6155535;28;20239;-67
2023/03/12 10:52:32;;;;;;;6.83;5.60;;;24.80;16.80;;;;;;6155671;28;20230;-65
2023/03/12 10:55:37;;;;;;;6.17;5.67;;;24.70;17.60;;;;;;6155253;28;20305;-65
2023/03/12 10:58:43;;;;;;;4.17;3.50;;;25.50;16.70;;;;;;6155101;28;20239;-65
2023/03/12 11:01:49;;;;;;;3.87;3.47;;;25.40;16.80;;;;;;6155834;28;20234;-65
2023/03/12 11:04:54;;;;;;;5.80;5.40;;;24.90;17.00;;;;;;6158695;28;20235;-65
2023/03/12 11:07:58;;;;;;;4.50;4.10;;;25.40;17.30;;;;;;6157097;28;20242;-65
2023/03/12 11:11:05;;;;;;;8.13;3.90;;;25.50;16.60;;;;;;6155183;28;20230;-65
2023/03/12 11:14:17;;;;;;;4.10;3.63;;;24.90;17.40;;;;;;6154665;28;20227;-65
2023/03/12 11:17:22;;;;;;;4.83;4.13;;;24.10;17.80;;;;;;6155056;28;20253;-65
2023/03/12 11:20:27;;;;;;;4.43;3.80;;;24.70;17.70;;;;;;6155487;28;20241;-65
2023/03/12 11:23:31;;;;;;;4.67;4.27;;;24.30;17.20;;;;;;6154812;28;20245;-66
2023/03/12 11:26:42;;;;;;;3.50;3.20;;;22.40;18.20;;;;;;6154588;28;20246;-65
2023/03/12 11:29:48;;;;;;;4.20;3.90;;;19.90;20.20;;;;;;6154225;28;20242;-65
2023/03/12 11:32:54;;;;;;;3.43;3.13;;;19.00;20.90;;;;;;6154823;28;20222;-65
2023/03/12 11:36:18;;;;;;;3.10;2.90;;;18.00;22.30;;;;;;6156106;28;20192;-65
2023/03/12 11:39:31;;;;;;;4.30;3.90;;;17.70;22.80;;;;;;6165109;28;20235;-65
2023/03/12 11:42:49;;;;;;;3.87;3.57;;;17.70;23.00;;;;;;6150994;28;20243;-66
2023/03/12 11:46:10;;;;;;;6.40;5.50;;;17.80;23.30;;;;;;6154745;28;20250;-66
2023/03/12 11:49:26;;;;;;;4.63;4.20;;;18.40;22.50;;;;;;6153171;28;20325;-65
2023/03/12 11:52:43;;;;;;;6.43;4.87;;;20.30;22.10;;;;;;6151801;28;20234;-65
2023/03/12 11:56:02;;;;;;;3.50;3.20;;;23.30;19.80;;;;;;6151491;28;20230;-66
2023/03/12 11:59:36;;;;;;;4.27;3.97;;;23.70;18.40;;;;;;6148161;28;20239;-65
2023/03/12 12:03:24;;;;;;;4.80;4.50;;;25.50;18.10;;;;;;6150123;28;20230;-65
2023/03/12 12:06:36;;;;;;;4.13;3.83;;;26.90;16.40;;;;;;6150976;28;20230;-66
2023/03/12 12:09:48;;;;;;;5.70;5.13;;;25.10;17.30;;;;;;6151809;28;20241;-67
2023/03/12 12:12:59;;;;;;;3.70;3.40;;;25.10;18.00;;;;;;6152183;28;20690;-66
2023/03/12 12:16:19;;;;;;;3.53;3.33;;;25.50;17.10;;;;;;6152114;28;20667;-65
2023/03/12 12:19:33;;;;;;;4.03;3.73;;;26.90;16.60;;;;;;6151900;28;20241;-66
2023/03/12 12:22:48;;;;;;;3.90;3.60;;;27.90;16.30;;;;;;6151212;28;20222;-66
2023/03/12 12:26:05;;;;;;;4.20;3.80;;;28.80;15.10;;;;;;6151731;28;20231;-66
2023/03/12 12:29:24;;;;;;;3.73;3.30;;;27.00;16.00;;;;;;6151535;28;20235;-66
2023/03/12 12:32:42;;;;;;;2.87;2.63;;;27.20;16.00;;;;;;6151406;28;20325;-67
2023/03/12 12:35:46;;;;;;;3.00;2.70;;;26.70;16.20;;;;;;6151484;28;20226;-66
2023/03/12 12:38:55;;;;;;;4.10;3.70;;;26.20;16.60;;;;;;6151145;28;20666;-66
2023/03/12 12:42:03;;;;;;;3.57;3.23;;;25.80;16.70;;;;;;6129168;28;20215;-66
2023/03/12 12:45:13;;;;;;;3.57;3.30;;;25.10;17.40;;;;;;6129448;28;20207;-66
2023/03/12 12:48:22;;;;;;;4.70;4.23;;;23.60;18.10;;;;;;6128703;28;20231;-66
2023/03/12 12:51:30;;;;;;;6.37;5.90;;;22.80;19.10;;;;;;6128497;28;20240;-65
2023/03/12 12:54:39;;;;;;;4.57;3.97;;;22.70;19.30;;;;;;6129081;28;20684;-66
2023/03/12 12:57:45;;;;;;;3.50;3.20;;;21.60;20.00;;;;;;6129211;28;20235;-66
2023/03/12 13:00:51;;;;;;;5.03;3.90;;;19.90;21.00;;;;;;6128844;28;20599;-66
2023/03/12 13:04:01;;;;;;;3.07;2.87;;;18.60;22.30;;;;;;6129256;28;20709;-66
2023/03/12 13:07:34;;;;;;;3.40;3.10;;;18.50;22.50;;;;;;6147581;28;20241;-65
2023/03/12 13:10:42;;;;;;;3.40;3.10;;;17.50;23.20;;;;;;6152848;28;20237;-65
2023/03/12 13:14:29;;;;;;;3.20;2.90;;;16.30;24.60;;;;;;6152575;28;20257;-65
2023/03/12 13:17:35;;;;;;;3.10;2.90;;;15.80;25.70;;;;;;6152410;28;20485;-65
2023/03/12 13:20:46;;;;;;;2.73;2.53;;;16.70;25.20;;;;;;6152645;28;20467;-65
2023/03/12 13:23:58;;;;;;;3.40;3.03;;;16.30;25.30;;;;;;6152248;28;20466;-65
2023/03/12 13:27:11;;;;;;;4.13;2.60;;;17.00;25.40;;;;;;6152137;28;20497;-65
2023/03/12 13:30:49;;;;;;;6.23;2.83;;;17.20;25.10;;;;;;6152660;28;20231;-66
2023/03/12 13:33:56;;;;;;;2.93;2.73;;;18.80;23.90;;;;;;6152992;28;20262;-66
2023/03/12 13:37:03;;;;;;;3.03;2.83;;;19.90;22.60;;;;;;6154101;28;20241;-66
2023/03/12 13:40:51;;;;;;;2.90;2.63;;;20.90;22.10;;;;;;6152469;28;20266;-66
2023/03/12 13:43:56;;;;;;;3.67;3.27;;;22.40;21.20;;;;;;6153818;28;20266;-66
2023/03/12 13:47:01;;;;;;;3.57;3.10;;;22.30;20.80;;;;;;6154003;28;20254;-66
2023/03/12 13:50:08;;;;;;;3.40;3.10;;;21.10;21.00;;;;;;6153668;28;20245;-66
2023/03/12 13:53:22;;;;;;;4.00;3.60;;;20.10;21.90;;;;;;6140129;28;20231;-66
2023/03/12 13:56:28;;;;;;;3.10;2.77;;;19.20;22.40;;;;;;6152256;28;20346;-66
2023/03/12 13:59:32;;;;;;;3.93;2.90;;;17.80;23.50;;;;;;6155057;28;20239;-66
2023/03/12 14:02:42;;;;;;;2.90;2.70;;;17.10;24.60;;;;;;6156520;28;20238;-64
2023/03/12 14:05:52;;;;;;;6.50;2.97;;;16.70;24.70;;;;;;6156223;28;20231;-66
2023/03/12 14:09:10;;;;;;;3.90;2.90;;;16.30;25.60;;;;;;6156351;28;20484;-66
2023/03/12 14:12:21;;;;;;;3.13;2.43;;;16.20;25.90;;;;;;6156392;28;20477;-65
2023/03/12 14:15:32;;;;;;;3.20;2.90;;;16.00;26.20;;;;;;6156375;28;20470;-65
2023/03/12 14:18:38;;;;;;;5.60;4.47;;;15.70;26.30;;;;;;6156287;28;20487;-64
2023/03/12 14:21:45;;;;;;;6.50;5.90;;;15.50;26.40;;;;;;6156151;28;20818;-64
2023/03/12 14:24:56;;;;;;;7.47;4.23;;;15.30;26.70;;;;;;6156110;28;20489;-64
2023/03/12 14:28:01;;;;;;;3.00;2.80;;;15.30;27.00;;;;;;6156087;28;20991;-65
2023/03/12 14:31:07;;;;;;;3.00;2.70;;;15.00;27.10;;;;;;6156138;28;20470;-64
2023/03/12 14:34:19;;;;;;;3.10;2.90;;;14.20;27.90;;;;;;6155560;28;20477;-65
2023/03/12 14:37:28;;;;;;;3.20;2.90;;;13.70;28.80;;;;;;6155915;28;20942;-63
2023/03/12 14:40:43;;;;;;;2.90;2.70;;;13.60;28.80;;;;;;6155977;28;20474;-65
2023/03/12 14:43:46;;;;;;;3.60;2.50;;;13.70;29.10;;;;;;6154578;28;20474;-65
2023/03/12 14:46:59;;;;;;;3.20;2.83;;;13.70;29.10;;;;;;6151879;28;20505;-65
2023/03/12 14:50:03;;;;;;;5.13;3.33;;;13.50;29.30;;;;;;6151777;28;20625;-65
2023/03/12 14:53:18;;;;;;;3.23;2.93;;;13.40;29.20;;;;;;6155101;28;20528;-65
2023/03/12 14:56:29;;;;;;;4.30;3.33;;;13.00;29.80;;;;;;6150367;28;20490;-65
2023/03/12 14:59:36;;;;;;;4.20;3.20;;;12.50;30.30;;;;;;6155473;28;20517;-65
2023/03/12 15:02:42;;;;;;;3.17;2.87;;;12.40;30.60;;;;;;6155747;28;20498;-65
2023/03/12 15:05:48;;;;;;;3.20;2.83;;;12.10;31.40;;;;;;6154779;28;20481;-65
2023/03/12 15:08:51;;;;;;;3.63;3.00;;;12.20;31.10;;;;;;6154618;28;20489;-66
2023/03/12 15:11:58;;;;;;;2.80;2.60;;;12.30;31.00;;;;;;6154169;28;20449;-65
2023/03/12 15:15:06;;;;;;;5.20;3.27;;;12.20;31.20;;;;;;6154599;28;20517;-66
2023/03/12 15:18:16;;;;;;;3.33;3.03;;;12.10;31.30;;;;;;6152356;28;20482;-66
2023/03/12 15:21:21;;;;;;;3.27;3.00;;;12.10;31.30;;;;;;6153426;28;20789;-66
2023/03/12 15:24:26;;;;;;;4.57;3.33;;;12.30;31.20;;;;;;6152798;28;20470;-64
2023/03/12 15:27:42;;;;;;;2.87;2.67;;;12.20;31.20;;;;;;6161331;28;20478;-64
2023/03/12 15:30:47;;;;;;;3.77;3.40;;;12.10;31.50;;;;;;6157218;28;20872;-64
2023/03/12 15:34:02;;;;;;;5.57;5.07;;;12.00;31.50;;;;;;6154127;28;20958;-65
2023/03/12 15:37:22;;;;;;;3.93;3.63;;;11.90;31.90;;;;;;6154703;28;20612;-66
2023/03/12 15:40:28;;;;;;;5.43;4.93;;;11.80;32.30;;;;;;6154125;28;20470;-64
2023/03/12 15:43:36;;;;;;;4.40;4.00;;;11.60;32.20;;;;;;6153720;28;20569;-65
2023/03/12 15:46:45;;;;;;;11.50;6.90;;;11.30;32.50;;;;;;6152949;28;20474;-65
2023/03/12 15:49:53;;;;;;;8.77;5.50;;;11.40;33.00;;;;;;6153401;28;20486;-65
2023/03/12 15:53:02;;;;;;;16.07;12.93;;;11.50;32.90;;;;;;6149366;28;20565;-65
2023/03/12 15:56:21;;;;;;;6.33;5.93;;;11.50;33.00;;;;;;6152678;28;20473;-65
2023/03/12 15:59:28;;;;;;;4.20;3.43;;;11.20;33.30;;;;;;6149193;28;20498;-67
2023/03/12 16:02:36;;;;;;;5.00;4.60;;;11.30;33.50;;;;;;6154583;28;20489;-67
2023/03/12 16:05:41;;;;;;;4.47;3.93;;;11.40;33.50;;;;;;6160238;28;20474;-67
2023/03/12 16:08:47;;;;;;;3.33;3.03;;;11.40;33.30;;;;;;6156590;28;20478;-67
2023/03/12 16:11:52;;;;;;;5.23;4.83;;;11.20;33.70;;;;;;6153436;28;20466;-66
2023/03/12 16:14:58;;;;;;;5.20;4.80;;;11.10;34.20;;;;;;6153217;28;20479;-66
2023/03/12 16:18:02;;;;;;;3.50;2.90;;;11.10;34.10;;;;;;6157127;28;20482;-67
2023/03/12 16:21:07;;;;;;;3.43;3.13;;;11.30;34.10;;;;;;6152257;28;21044;-67